createdAt,value
2023-05-10T00:00:10.227Z,96996.91
2023-05-10T00:02:45.759Z,96993.34
2023-05-10T00:05:14.234Z,96990.56
2023-05-10T00:07:45.671Z,96991.72
2023-05-10T00:10:14.733Z,96988.97
2023-05-10T00:12:44.883Z,96997.22
2023-05-10T00:15:13.375Z,96993.34
2023-05-10T00:17:41.920Z,96993.66
2023-05-10T00:20:11.764Z,96988.16
2023-05-10T00:22:40.348Z,96990.91
2023-05-10T00:25:10.403Z,96991.72
2023-05-10T00:27:38.859Z,96994.00
2023-05-10T00:30:09.899Z,96988.47
2023-05-10T00:32:38.452Z,96980.22
2023-05-10T00:35:07.714Z,96981.81
2023-05-10T00:37:36.270Z,96983.78
2023-05-10T00:40:05.838Z,96989.28
2023-05-10T00:42:34.535Z,96988.47
2023-05-10T00:45:03.048Z,96986.88
2023-05-10T00:47:34.594Z,96986.88
2023-05-10T00:50:04.667Z,96987.69
2023-05-10T00:52:33.753Z,96986.88
2023-05-10T00:55:04.263Z,96987.69
2023-05-10T00:57:33.952Z,96982.50
2023-05-10T01:00:04.113Z,96994.66
2023-05-10T01:02:35.817Z,96991.56
2023-05-10T01:05:06.106Z,96993.53
2023-05-10T01:07:34.811Z,96999.84
2023-05-10T01:10:21.678Z,97012.81
2023-05-10T01:13:08.216Z,97007.31
2023-05-10T01:15:55.182Z,97014.44
2023-05-10T01:18:26.104Z,97021.09
2023-05-10T01:21:09.033Z,97023.03
2023-05-10T01:24:00.055Z,97023.84
2023-05-10T01:26:59.479Z,97023.84
2023-05-10T01:30:01.418Z,97030.16
2023-05-10T01:32:47.288Z,97032.13
2023-05-10T01:35:20.809Z,97034.88
2023-05-10T01:37:54.508Z,97034.88
2023-05-10T01:40:32.759Z,97040.41
2023-05-10T01:43:04.925Z,97045.91
2023-05-10T01:45:39.051Z,97049.81
2023-05-10T01:48:12.017Z,97047.03
2023-05-10T01:50:44.296Z,97055.31
2023-05-10T01:53:14.674Z,97054.50
2023-05-10T01:55:48.398Z,97053.69
2023-05-10T01:58:22.077Z,97055.31
2023-05-10T02:00:54.299Z,97063.59
2023-05-10T02:03:27.139Z,97061.16
2023-05-10T02:05:57.909Z,97070.25
2023-05-10T02:08:27.659Z,97064.72
2023-05-10T02:10:58.808Z,97074.13
2023-05-10T02:13:28.906Z,97074.13
2023-05-10T02:15:59.054Z,97074.94
2023-05-10T02:18:30.928Z,97085.16
2023-05-10T02:21:00.847Z,97074.94
2023-05-10T02:23:31.361Z,97080.47
2023-05-10T02:26:02.863Z,97085.97
2023-05-10T02:28:32.972Z,97087.91
2023-05-10T02:31:02.195Z,97096.19
2023-05-10T02:33:34.084Z,97091.50
2023-05-10T02:36:03.716Z,97102.50
2023-05-10T02:38:34.539Z,97098.94
2023-05-10T02:41:03.990Z,97099.28
2023-05-10T02:43:34.202Z,97101.69
2023-05-10T02:46:03.518Z,97100.91
2023-05-10T02:48:33.490Z,97100.09
2023-05-10T02:51:06.992Z,97101.69
2023-05-10T02:53:37.679Z,97098.47
2023-05-10T02:56:12.412Z,97103.97
2023-05-10T02:58:40.888Z,97102.84
2023-05-10T03:01:09.706Z,97100.09
2023-05-10T03:03:39.471Z,97098.47
2023-05-10T03:06:08.094Z,97100.09
2023-05-10T03:08:36.635Z,97101.69
2023-05-10T03:11:30.919Z,97101.22
2023-05-10T03:14:15.030Z,97104.78
2023-05-10T03:16:48.130Z,97097.31
2023-05-10T03:19:26.960Z,97094.56
2023-05-10T03:21:58.610Z,97103.97
2023-05-10T03:24:30.181Z,97108.34
2023-05-10T03:27:03.819Z,97111.13
2023-05-10T03:29:33.920Z,97106.75
2023-05-10T03:32:02.725Z,97112.25
2023-05-10T03:34:34.732Z,97113.06
2023-05-10T03:37:03.204Z,97114.19
2023-05-10T03:39:33.737Z,97118.91
2023-05-10T03:42:03.728Z,97122.47
2023-05-10T03:44:34.182Z,97120.53
2023-05-10T03:47:02.717Z,97115.00
2023-05-10T03:49:31.262Z,97124.09
2023-05-10T03:52:01.074Z,97113.38
2023-05-10T03:54:29.517Z,97119.72
2023-05-10T03:56:57.983Z,97120.53
2023-05-10T03:59:26.332Z,97115.00
2023-05-10T04:01:54.809Z,97113.38
2023-05-10T04:04:24.095Z,97120.53
2023-05-10T04:06:52.584Z,97118.91
2023-05-10T04:09:22.845Z,97123.28
2023-05-10T04:11:51.238Z,97124.41
2023-05-10T04:14:19.669Z,97123.59
2023-05-10T04:16:48.180Z,97124.41
2023-05-10T04:19:16.627Z,97122.81
2023-05-10T04:21:45.019Z,97129.94
2023-05-10T04:24:14.106Z,97130.75
2023-05-10T04:26:43.850Z,97125.56
2023-05-10T04:29:12.279Z,97128.78
2023-05-10T04:31:40.764Z,97129.13
2023-05-10T04:34:09.241Z,97131.56
2023-05-10T04:36:37.718Z,97133.81
2023-05-10T04:39:06.572Z,97141.78
2023-05-10T04:41:34.944Z,97139.34
2023-05-10T04:44:05.047Z,97138.19
2023-05-10T04:46:33.675Z,97139.34
2023-05-10T04:49:02.181Z,97140.97
2023-05-10T04:51:30.685Z,97144.53
2023-05-10T04:54:06.179Z,97146.47
2023-05-10T04:56:35.230Z,97150.38
2023-05-10T04:59:05.012Z,97156.69
2023-05-10T05:01:33.403Z,97161.38
2023-05-10T05:04:02.491Z,97162.19
2023-05-10T05:06:30.952Z,97166.91
2023-05-10T05:08:59.354Z,97158.63
2023-05-10T05:11:27.772Z,97162.19
2023-05-10T05:13:56.169Z,97163.00
2023-05-10T05:16:26.612Z,97172.41
2023-05-10T05:18:55.293Z,97171.63
2023-05-10T05:21:24.877Z,97174.38
2023-05-10T05:23:53.261Z,97177.94
2023-05-10T05:26:22.205Z,97172.41
2023-05-10T05:28:53.487Z,97174.84
2023-05-10T05:31:22.335Z,97184.25
2023-05-10T05:33:52.210Z,97180.69
2023-05-10T05:36:20.659Z,97183.44
2023-05-10T05:38:49.114Z,97183.13
2023-05-10T05:41:17.572Z,97192.19
2023-05-10T05:43:46.051Z,97193.81
2023-05-10T05:46:14.612Z,97186.84
2023-05-10T05:48:43.108Z,97183.75
2023-05-10T05:51:12.854Z,97184.22
2023-05-10T05:53:41.359Z,97187.47
2023-05-10T05:56:10.584Z,97193.78
2023-05-10T05:58:41.726Z,97193.94
2023-05-10T06:01:10.141Z,97198.31
2023-05-10T06:03:38.708Z,97196.03
2023-05-10T06:06:07.624Z,97190.53
2023-05-10T06:08:37.523Z,97201.72
2023-05-10T06:11:06.117Z,97199.78
2023-05-10T06:13:36.217Z,97204.16
2023-05-10T06:16:05.109Z,97211.28
2023-05-10T06:18:34.823Z,97210.47
2023-05-10T06:21:03.507Z,97210.94
2023-05-10T06:23:31.887Z,97202.69
2023-05-10T06:26:01.756Z,97214.53
2023-05-10T06:28:32.243Z,97214.53
2023-05-10T06:31:00.861Z,97214.53
2023-05-10T06:33:29.543Z,97222.47
2023-05-10T06:35:58.143Z,97220.50
2023-05-10T06:38:26.768Z,97219.38
2023-05-10T06:40:55.223Z,97220.19
2023-05-10T06:43:25.830Z,97222.63
2023-05-10T06:45:54.438Z,97230.41
2023-05-10T06:48:23.007Z,97222.63
2023-05-10T06:50:51.567Z,97233.66
2023-05-10T06:53:19.971Z,97228.94
2023-05-10T06:55:48.467Z,97236.06
2023-05-10T06:58:16.892Z,97241.59
2023-05-10T07:00:47.970Z,97237.72
2023-05-10T07:03:16.879Z,97236.91
2023-05-10T07:05:45.364Z,97234.97
2023-05-10T07:08:14.339Z,97238.53
2023-05-10T07:10:42.866Z,97240.16
2023-05-10T07:13:11.852Z,97237.41
2023-05-10T07:15:40.306Z,97240.16
2023-05-10T07:18:10.158Z,97245.66
2023-05-10T07:20:38.539Z,97240.97
2023-05-10T07:23:07.016Z,97241.78
2023-05-10T07:25:35.410Z,97244.53
2023-05-10T07:28:03.850Z,97248.09
2023-05-10T07:30:32.386Z,97248.91
2023-05-10T07:33:01.139Z,97247.78
2023-05-10T07:35:30.936Z,97250.53
2023-05-10T07:37:59.388Z,97243.41
2023-05-10T07:40:27.873Z,97256.06
2023-05-10T07:42:56.356Z,97245.81
2023-05-10T07:45:24.937Z,97250.53
2023-05-10T07:47:53.438Z,97249.72
2023-05-10T07:50:22.733Z,97246.63
2023-05-10T07:52:52.467Z,97253.78
2023-05-10T07:55:22.128Z,97257.00
2023-05-10T07:57:50.628Z,97255.41
2023-05-10T08:00:20.936Z,97260.09
2023-05-10T08:02:49.785Z,97253.78
2023-05-10T08:05:18.731Z,97265.63
2023-05-10T08:07:47.416Z,97257.00
2023-05-10T08:10:17.781Z,97257.00
2023-05-10T08:12:46.239Z,97260.59
2023-05-10T08:15:14.707Z,97252.31
2023-05-10T08:17:43.965Z,97260.59
2023-05-10T08:20:13.820Z,97261.38
2023-05-10T08:22:42.253Z,97268.53
2023-05-10T08:25:10.836Z,97261.88
2023-05-10T08:27:40.552Z,97264.97
2023-05-10T08:30:10.477Z,97255.88
2023-05-10T08:32:39.987Z,97254.72
2023-05-10T08:35:08.805Z,97256.34
2023-05-10T08:37:37.221Z,97261.06
2023-05-10T08:40:06.437Z,97259.13
2023-05-10T08:42:38.805Z,97248.88
2023-05-10T08:45:10.447Z,97250.84
2023-05-10T08:47:40.678Z,97255.22
2023-05-10T08:50:10.019Z,97250.84
2023-05-10T08:52:40.738Z,97258.78
2023-05-10T08:55:09.638Z,97260.72
2023-05-10T08:57:38.415Z,97259.59
2023-05-10T09:00:09.872Z,97259.59
2023-05-10T09:02:39.156Z,97269.50
2023-05-10T09:05:08.965Z,97273.88
2023-05-10T09:07:37.624Z,97271.09
2023-05-10T09:10:07.271Z,97273.53
2023-05-10T09:12:35.738Z,97269.97
2023-05-10T09:15:05.914Z,97275.50
2023-05-10T09:17:36.289Z,97275.50
2023-05-10T09:20:06.556Z,97287.34
2023-05-10T09:22:35.309Z,97287.34
2023-05-10T09:25:08.965Z,97282.63
2023-05-10T09:27:38.098Z,97286.19
2023-05-10T09:30:08.456Z,97289.75
2023-05-10T09:32:43.361Z,97285.38
2023-05-10T09:35:12.873Z,97285.88
2023-05-10T09:37:43.382Z,97296.09
2023-05-10T09:40:14.916Z,97290.56
2023-05-10T09:42:44.784Z,97286.69
2023-05-10T09:45:13.282Z,97282.63
2023-05-10T09:47:43.403Z,97284.56
2023-05-10T09:50:12.361Z,97285.72
2023-05-10T09:52:49.232Z,97284.91
2023-05-10T09:55:18.416Z,97282.16
2023-05-10T09:57:47.726Z,97283.28
2023-05-10T10:00:20.681Z,97282.47
2023-05-10T10:02:57.170Z,97285.56
2023-05-10T10:05:30.314Z,97284.75
2023-05-10T10:08:00.197Z,97286.69
2023-05-10T10:10:29.353Z,97294.50
2023-05-10T10:12:57.843Z,97304.38
2023-05-10T10:15:26.511Z,97301.16
2023-05-10T10:17:56.436Z,97300.00
2023-05-10T10:20:26.026Z,97301.16
2023-05-10T10:22:55.112Z,97295.63
2023-05-10T10:25:24.477Z,97299.53
2023-05-10T10:28:09.888Z,97295.16
2023-05-10T10:30:43.344Z,97292.38
2023-05-10T10:33:41.012Z,97298.72
2023-05-10T10:36:09.663Z,97300.66
2023-05-10T10:38:40.494Z,97298.72
2023-05-10T10:41:13.327Z,97297.91
2023-05-10T10:43:41.875Z,97298.72
2023-05-10T10:46:18.273Z,97299.53
2023-05-10T10:48:52.521Z,97306.66
2023-05-10T10:51:21.074Z,97308.28
2023-05-10T10:53:50.244Z,97315.44
2023-05-10T10:56:25.151Z,97313.16
2023-05-10T10:58:54.456Z,97309.59
2023-05-10T11:01:23.077Z,97307.63
2023-05-10T11:04:22.737Z,97300.16
2023-05-10T11:06:51.270Z,97289.94
2023-05-10T11:09:21.411Z,97292.69
2023-05-10T11:11:55.983Z,97298.22
2023-05-10T11:14:24.850Z,97297.88
2023-05-10T11:16:53.781Z,97305.34
2023-05-10T11:19:23.668Z,97302.28
2023-05-10T11:21:54.965Z,97294.31
2023-05-10T11:24:28.933Z,97297.88
2023-05-10T11:26:58.070Z,97295.13
2023-05-10T11:29:27.564Z,97291.56
2023-05-10T11:31:59.897Z,97295.13
2023-05-10T11:34:31.750Z,97288.81
2023-05-10T11:37:00.352Z,97290.44
2023-05-10T11:39:29.702Z,97301.47
2023-05-10T11:41:59.179Z,97299.84
2023-05-10T11:44:31.824Z,97307.78
2023-05-10T11:47:01.852Z,97299.50
2023-05-10T11:49:32.059Z,97297.56
2023-05-10T11:52:07.431Z,97305.84
2023-05-10T11:54:36.811Z,97299.50
2023-05-10T11:57:05.779Z,97303.06
2023-05-10T11:59:34.238Z,97304.22
2023-05-10T12:02:03.167Z,97304.69
2023-05-10T12:04:33.416Z,97310.22
2023-05-10T12:07:02.179Z,97318.81
2023-05-10T12:09:43.266Z,97328.25
2023-05-10T12:12:12.870Z,97345.59
2023-05-10T12:14:41.379Z,97355.00
2023-05-10T12:17:13.922Z,97364.91
2023-05-10T12:19:44.702Z,97364.91
2023-05-10T12:22:13.182Z,97379.84
2023-05-10T12:24:41.658Z,97383.41
2023-05-10T12:27:10.678Z,97385.03
2023-05-10T12:29:44.709Z,97386.97
2023-05-10T12:32:13.206Z,97397.69
2023-05-10T12:34:43.115Z,97407.91
2023-05-10T12:37:11.583Z,97411.50
2023-05-10T12:39:41.840Z,97415.06
2023-05-10T12:42:10.523Z,97406.31
2023-05-10T12:44:39.095Z,97404.34
2023-05-10T12:47:07.844Z,97407.13
2023-05-10T12:49:36.403Z,97406.31
2023-05-10T12:52:06.316Z,97412.31
2023-05-10T12:54:34.896Z,97408.72
2023-05-10T12:57:03.316Z,97403.22
2023-05-10T12:59:31.818Z,97406.78
2023-05-10T13:02:00.290Z,97405.66
2023-05-10T13:04:28.704Z,97402.88
2023-05-10T13:06:59.677Z,97399.31
2023-05-10T13:09:30.653Z,97405.66
2023-05-10T13:11:59.199Z,97398.50
2023-05-10T13:14:27.947Z,97401.75
2023-05-10T13:16:56.488Z,97405.31
2023-05-10T13:19:24.982Z,97405.66
2023-05-10T13:21:53.611Z,97401.75
2023-05-10T13:24:22.645Z,97397.03
2023-05-10T13:26:52.468Z,97395.44
2023-05-10T13:29:22.027Z,97387.63
2023-05-10T13:31:50.985Z,97387.97
2023-05-10T13:34:21.310Z,97381.94
2023-05-10T13:36:49.989Z,97393.47
2023-05-10T13:39:18.830Z,97387.47
2023-05-10T13:41:47.336Z,97389.41
2023-05-10T13:44:17.308Z,97391.38
2023-05-10T13:46:46.046Z,97386.66
2023-05-10T13:49:14.609Z,97382.28
2023-05-10T13:51:43.122Z,97380.34
2023-05-10T13:54:13.541Z,97380.34
2023-05-10T13:56:45.194Z,97372.06
2023-05-10T13:59:13.589Z,97370.91
2023-05-10T14:01:43.693Z,97364.59
2023-05-10T14:04:12.985Z,97364.59
2023-05-10T14:06:41.520Z,97365.41
2023-05-10T14:09:10.439Z,97367.03
2023-05-10T14:11:42.689Z,97353.72
2023-05-10T14:14:11.203Z,97367.50
2023-05-10T14:16:39.679Z,97356.47
2023-05-10T14:19:09.466Z,97353.72
2023-05-10T14:21:38.013Z,97366.38
2023-05-10T14:24:07.897Z,97365.56
2023-05-10T14:26:36.442Z,97359.72
2023-05-10T14:29:05.021Z,97347.38
2023-05-10T14:31:33.698Z,97349.81
2023-05-10T14:34:02.203Z,97349.81
2023-05-10T14:36:32.731Z,97355.00
2023-05-10T14:39:01.192Z,97355.31
2023-05-10T14:41:31.180Z,97347.88
2023-05-10T14:43:59.685Z,97352.56
2023-05-10T14:46:28.465Z,97349.81
2023-05-10T14:48:56.910Z,97364.75
2023-05-10T14:51:25.461Z,97361.19
2023-05-10T14:53:55.325Z,97348.19
2023-05-10T14:56:23.808Z,97347.06
2023-05-10T14:58:52.298Z,97350.28
2023-05-10T15:01:21.299Z,97354.66
2023-05-10T15:03:50.371Z,97346.41
2023-05-10T15:06:19.123Z,97351.91
2023-05-10T15:08:47.550Z,97350.78
2023-05-10T15:11:17.255Z,97339.75
2023-05-10T15:13:45.697Z,97345.25
2023-05-10T15:16:14.167Z,97348.00
2023-05-10T15:18:42.641Z,97349.16
2023-05-10T15:21:11.326Z,97353.06
2023-05-10T15:23:39.860Z,97351.44
2023-05-10T15:26:08.865Z,97349.00
2023-05-10T15:28:38.725Z,97352.09
2023-05-10T15:31:07.212Z,97357.13
2023-05-10T15:33:35.834Z,97342.50
2023-05-10T15:36:04.798Z,97357.44
2023-05-10T15:38:34.031Z,97357.44
2023-05-10T15:41:02.422Z,97367.69
2023-05-10T15:43:30.926Z,97370.91
2023-05-10T15:46:00.746Z,97363.78
2023-05-10T15:48:32.142Z,97366.53
2023-05-10T15:51:00.603Z,97369.28
2023-05-10T15:53:28.980Z,97363.28
2023-05-10T15:55:57.591Z,97373.19
2023-05-10T15:58:25.986Z,97368.81
2023-05-10T16:00:54.460Z,97369.94
2023-05-10T16:03:24.325Z,97371.56
2023-05-10T16:05:53.752Z,97366.88
2023-05-10T16:08:22.238Z,97369.28
2023-05-10T16:10:51.199Z,97376.44
2023-05-10T16:13:20.173Z,97371.72
2023-05-10T16:15:48.628Z,97378.06
2023-05-10T16:18:17.794Z,97368.97
2023-05-10T16:20:47.815Z,97368.16
2023-05-10T16:23:16.395Z,97370.91
2023-05-10T16:25:44.850Z,97371.72
2023-05-10T16:28:13.373Z,97368.97
2023-05-10T16:30:41.947Z,97375.28
2023-05-10T16:33:10.472Z,97376.44
2023-05-10T16:35:39.031Z,97378.06
2023-05-10T16:38:08.814Z,97385.19
2023-05-10T16:40:37.435Z,97382.13
2023-05-10T16:43:05.967Z,97376.59
2023-05-10T16:45:34.450Z,97386.97
2023-05-10T16:48:03.845Z,97383.06
2023-05-10T16:50:32.408Z,97387.13
2023-05-10T16:53:00.846Z,97379.34
2023-05-10T16:55:30.753Z,97381.28
2023-05-10T16:58:00.798Z,97376.25
2023-05-10T17:00:29.450Z,97385.00
2023-05-10T17:02:57.957Z,97379.66
2023-05-10T17:05:27.178Z,97382.91
2023-05-10T17:07:55.996Z,97386.94
2023-05-10T17:10:24.381Z,97386.13
2023-05-10T17:12:54.625Z,97383.84
2023-05-10T17:15:23.068Z,97391.00
2023-05-10T17:17:51.550Z,97387.09
2023-05-10T17:20:20.229Z,97387.09
2023-05-10T17:22:49.519Z,97387.09
2023-05-10T17:25:18.363Z,97387.91
2023-05-10T17:27:47.007Z,97394.25
2023-05-10T17:30:17.002Z,97391.47
2023-05-10T17:32:45.503Z,97387.91
2023-05-10T17:35:14.228Z,97389.38
2023-05-10T17:37:44.020Z,97389.22
2023-05-10T17:40:13.059Z,97392.31
2023-05-10T17:42:41.791Z,97392.97
2023-05-10T17:45:11.537Z,97388.09
2023-05-10T17:47:41.438Z,97387.28
2023-05-10T17:50:11.117Z,97390.38
2023-05-10T17:52:39.562Z,97399.78
2023-05-10T17:55:08.881Z,97399.31
2023-05-10T17:57:38.678Z,97397.19
2023-05-10T18:00:10.129Z,97394.78
2023-05-10T18:02:38.857Z,97397.84
2023-05-10T18:05:09.470Z,97399.31
2023-05-10T18:07:38.058Z,97399.66
2023-05-10T18:10:07.706Z,97400.28
2023-05-10T18:12:38.960Z,97399.81
2023-05-10T18:15:08.457Z,97400.47
2023-05-10T18:17:37.024Z,97400.47
2023-05-10T18:20:11.114Z,97407.44
2023-05-10T18:22:39.925Z,97410.53
2023-05-10T18:25:09.369Z,97405.81
2023-05-10T18:27:37.992Z,97409.38
2023-05-10T18:30:09.925Z,97413.78
2023-05-10T18:32:39.620Z,97415.41
2023-05-10T18:35:10.727Z,97411.50
2023-05-10T18:37:39.668Z,97413.13
2023-05-10T18:40:12.453Z,97420.25
2023-05-10T18:42:41.648Z,97425.78
2023-05-10T18:45:10.656Z,97423.50
2023-05-10T18:47:39.309Z,97428.22
2023-05-10T18:50:10.912Z,97424.63
2023-05-10T18:52:39.493Z,97431.28
2023-05-10T18:55:09.470Z,97422.22
2023-05-10T18:57:41.377Z,97428.03
2023-05-10T19:00:12.487Z,97431.47
2023-05-10T19:02:41.354Z,97429.84
2023-05-10T19:05:11.523Z,97428.22
2023-05-10T19:07:43.324Z,97445.09
2023-05-10T19:10:13.626Z,97431.63
2023-05-10T19:12:42.325Z,97437.75
2023-05-10T19:15:11.716Z,97433.84
2023-05-10T19:17:41.373Z,97442.47
2023-05-10T19:20:12.570Z,97445.53
2023-05-10T19:22:54.270Z,97454.94
2023-05-10T19:25:30.030Z,97446.69
2023-05-10T19:27:58.701Z,97453.31
2023-05-10T19:30:28.660Z,97459.97
2023-05-10T19:32:57.297Z,97449.25
2023-05-10T19:35:27.206Z,97454.78
2023-05-10T19:37:55.771Z,97459.50
2023-05-10T19:40:24.239Z,97453.16
2023-05-10T19:42:53.721Z,97457.06
2023-05-10T19:45:22.368Z,97457.38
2023-05-10T19:47:51.387Z,97453.00
2023-05-10T19:50:20.313Z,97454.13
2023-05-10T19:52:50.587Z,97455.25
2023-05-10T19:55:27.815Z,97456.88
2023-05-10T19:57:56.714Z,97452.81
2023-05-10T20:00:27.242Z,97459.16
2023-05-10T20:02:56.501Z,97454.28
2023-05-10T20:05:25.678Z,97458.66
2023-05-10T20:07:55.598Z,97457.84
2023-05-10T20:10:26.873Z,97455.91
2023-05-10T20:12:55.688Z,97452.66
2023-05-10T20:15:24.647Z,97457.38
2023-05-10T20:17:53.925Z,97456.56
2023-05-10T20:20:23.611Z,97454.94
2023-05-10T20:22:52.320Z,97458.81
2023-05-10T20:25:22.295Z,97459.94
2023-05-10T20:27:51.749Z,97460.44
2023-05-10T20:30:20.579Z,97457.19
2023-05-10T20:32:49.217Z,97464.66
2023-05-10T20:35:17.995Z,97466.59
2023-05-10T20:37:48.274Z,97467.72
2023-05-10T20:40:17.086Z,97466.59
2023-05-10T20:42:47.666Z,97460.28
2023-05-10T20:45:16.357Z,97459.47
2023-05-10T20:47:44.797Z,97459.47
2023-05-10T20:50:13.291Z,97455.09
2023-05-10T20:52:41.713Z,97460.59
2023-05-10T20:55:10.926Z,97453.47
2023-05-10T20:57:39.351Z,97457.03
2023-05-10T21:00:10.510Z,97453.47
2023-05-10T21:02:38.951Z,97459.78
2023-05-10T21:05:08.513Z,97456.22
2023-05-10T21:07:37.090Z,97449.88
2023-05-10T21:10:06.885Z,97458.16
2023-05-10T21:12:35.463Z,97458.16
2023-05-10T21:15:04.247Z,97447.44
2023-05-10T21:17:34.131Z,97441.94
2023-05-10T21:20:02.662Z,97441.13
2023-05-10T21:22:31.093Z,97441.13
2023-05-10T21:24:59.502Z,97441.13
2023-05-10T21:27:28.139Z,97438.69
2023-05-10T21:29:56.620Z,97438.69
2023-05-10T21:32:25.017Z,97442.59
2023-05-10T21:34:54.754Z,97437.88
2023-05-10T21:37:23.182Z,97438.69
2023-05-10T21:39:52.793Z,97444.22
2023-05-10T21:42:21.252Z,97448.09
2023-05-10T21:44:49.658Z,97448.91
2023-05-10T21:47:18.189Z,97448.09
2023-05-10T21:49:46.647Z,97451.97
2023-05-10T21:52:16.449Z,97451.16
2023-05-10T21:54:44.825Z,97451.97
2023-05-10T21:57:13.225Z,97450.38
2023-05-10T21:59:41.742Z,97447.59
2023-05-10T22:02:10.199Z,97439.34
2023-05-10T22:04:38.613Z,97455.88
2023-05-10T22:07:07.087Z,97444.03
2023-05-10T22:09:36.913Z,97438.53
2023-05-10T22:12:05.803Z,97450.38
2023-05-10T22:14:34.286Z,97443.22
2023-05-10T22:17:02.795Z,97451.50
2023-05-10T22:19:31.303Z,97438.84
2023-05-10T22:21:59.734Z,97445.16
2023-05-10T22:24:28.107Z,97448.75
2023-05-10T22:26:57.962Z,97447.13
2023-05-10T22:29:26.542Z,97446.31
2023-05-10T22:31:54.923Z,97450.69
2023-05-10T22:34:23.385Z,97451.81
2023-05-10T22:36:51.897Z,97448.25
2023-05-10T22:39:20.324Z,97447.13
2023-05-10T22:41:48.773Z,97447.44
2023-05-10T22:44:18.658Z,97451.00
2023-05-10T22:46:47.295Z,97449.38
2023-05-10T22:49:15.662Z,97452.13
2023-05-10T22:51:44.033Z,97456.53
2023-05-10T22:54:12.451Z,97450.19
2023-05-10T22:56:40.864Z,97456.84
2023-05-10T22:59:09.253Z,97455.22
2023-05-10T23:01:39.090Z,97449.38
2023-05-10T23:04:07.612Z,97450.50
2023-05-10T23:06:36.069Z,97447.75
2023-05-10T23:09:04.537Z,97453.28
2023-05-10T23:11:33.024Z,97450.50
2023-05-10T23:14:01.469Z,97452.47
2023-05-10T23:16:30.642Z,97463.47
2023-05-10T23:19:00.608Z,97451.69
2023-05-10T23:21:30.657Z,97450.88
2023-05-10T23:24:00.600Z,97455.22
2023-05-10T23:26:29.001Z,97462.69
2023-05-10T23:28:57.421Z,97459.44
2023-05-10T23:31:25.941Z,97458.31
2023-05-10T23:33:54.889Z,97455.56
2023-05-10T23:36:24.655Z,97455.56
2023-05-10T23:38:53.063Z,97455.56
2023-05-10T23:41:21.510Z,97452.81
2023-05-10T23:43:49.902Z,97450.06
2023-05-10T23:46:18.380Z,97455.56
2023-05-10T23:48:46.820Z,97455.56
2023-05-10T23:51:15.189Z,97450.06
2023-05-10T23:53:44.986Z,97448.44
2023-05-10T23:56:13.500Z,97452.31
2023-05-10T23:58:42.693Z,97447.63
